createdAt,value
2022-11-03T00:01:43.004Z,2.50
2022-11-03T00:04:15.881Z,2.17
2022-11-03T00:06:49.002Z,2.67
2022-11-03T00:09:21.952Z,2.33
2022-11-03T00:11:54.514Z,2.20
2022-11-03T00:14:29.499Z,2.70
2022-11-03T00:17:01.240Z,2.40
2022-11-03T00:19:32.471Z,2.90
2022-11-03T00:22:03.962Z,2.28
2022-11-03T00:24:35.531Z,2.60
2022-11-03T00:27:06.709Z,2.30
2022-11-03T00:29:41.064Z,2.33
2022-11-03T00:32:11.973Z,2.55
2022-11-03T00:34:43.593Z,2.15
2022-11-03T00:37:14.994Z,2.38
2022-11-03T00:39:45.898Z,2.45
2022-11-03T00:42:16.787Z,2.33
2022-11-03T00:44:50.379Z,3.05
2022-11-03T00:47:24.189Z,2.22
2022-11-03T00:49:55.452Z,2.30
2022-11-03T00:52:26.469Z,2.40
2022-11-03T00:54:57.844Z,2.53
2022-11-03T00:57:29.113Z,2.03
2022-11-03T01:00:02.827Z,2.25
2022-11-03T01:02:34.639Z,1.70
2022-11-03T01:05:17.875Z,2.58
2022-11-03T01:07:48.910Z,2.75
2022-11-03T01:10:20.513Z,2.05
2022-11-03T01:12:51.480Z,1.85
2022-11-03T01:15:25.341Z,2.10
2022-11-03T01:17:57.277Z,1.55
2022-11-03T01:20:28.333Z,1.83
2022-11-03T01:22:59.264Z,2.00
2022-11-03T01:25:30.712Z,2.47
2022-11-03T01:28:01.916Z,1.88
2022-11-03T01:30:37.515Z,1.70
2022-11-03T01:33:09.028Z,1.80
2022-11-03T01:35:40.406Z,1.83
2022-11-03T01:38:11.728Z,2.58
2022-11-03T01:40:42.732Z,1.67
2022-11-03T01:43:20.900Z,1.67
2022-11-03T01:45:59.569Z,1.60
2022-11-03T01:48:31.169Z,1.95
2022-11-03T01:51:02.592Z,1.58
2022-11-03T01:53:34.444Z,2.60
2022-11-03T01:56:07.188Z,2.10
2022-11-03T01:58:41.311Z,1.65
2022-11-03T02:01:15.957Z,1.60
2022-11-03T02:03:50.810Z,2.17
2022-11-03T02:06:24.102Z,1.92
2022-11-03T02:09:00.577Z,2.45
2022-11-03T02:11:44.881Z,2.08
2022-11-03T02:14:17.198Z,2.50
2022-11-03T02:16:54.806Z,2.28
2022-11-03T02:19:34.219Z,2.30
2022-11-03T02:22:22.588Z,2.38
2022-11-03T02:24:55.998Z,2.38
2022-11-03T02:27:30.203Z,1.85
2022-11-03T02:30:01.721Z,2.05
2022-11-03T02:32:36.832Z,1.98
2022-11-03T02:35:14.457Z,1.73
2022-11-03T02:37:49.872Z,2.55
2022-11-03T02:40:24.836Z,2.20
2022-11-03T02:43:01.020Z,1.70
2022-11-03T02:45:32.779Z,1.70
2022-11-03T02:48:06.117Z,2.08
2022-11-03T02:50:38.797Z,1.52
2022-11-03T02:53:09.887Z,1.48
2022-11-03T02:55:43.190Z,1.67
2022-11-03T02:58:22.138Z,2.00
2022-11-03T03:00:57.722Z,2.05
2022-11-03T03:03:32.407Z,1.98
2022-11-03T03:06:09.703Z,1.65
2022-11-03T03:08:45.857Z,1.90
2022-11-03T03:11:17.626Z,1.57
2022-11-03T03:13:51.201Z,2.53
2022-11-03T03:16:30.303Z,1.55
2022-11-03T03:19:07.193Z,1.58
2022-11-03T03:24:17.042Z,1.92
2022-11-03T03:26:51.552Z,1.80
2022-11-03T03:29:29.217Z,2.03
2022-11-03T03:32:03.734Z,1.90
2022-11-03T03:34:37.004Z,1.70
2022-11-03T03:37:09.697Z,2.00
2022-11-03T03:39:42.853Z,1.50
2022-11-03T03:42:17.526Z,2.00
2022-11-03T03:44:52.350Z,1.90
2022-11-03T03:47:28.095Z,1.58
2022-11-03T03:49:59.802Z,2.05
2022-11-03T03:52:31.717Z,1.80
2022-11-03T03:55:02.667Z,2.13
2022-11-03T03:57:35.495Z,1.73
2022-11-03T04:00:10.452Z,2.17
2022-11-03T04:02:43.825Z,2.45
2022-11-03T04:05:14.890Z,2.08
2022-11-03T04:07:52.351Z,2.05
2022-11-03T04:10:25.701Z,2.05
2022-11-03T04:13:08.754Z,1.60
2022-11-03T04:15:57.121Z,1.63
2022-11-03T04:18:40.153Z,1.73
2022-11-03T04:21:26.543Z,1.38
2022-11-03T04:26:31.364Z,1.73
2022-11-03T04:29:04.429Z,1.52
2022-11-03T04:31:39.485Z,1.70
2022-11-03T04:34:15.523Z,2.15
2022-11-03T04:36:46.400Z,1.90
2022-11-03T04:39:22.187Z,1.33
2022-11-03T04:41:53.253Z,1.80
2022-11-03T04:44:24.268Z,1.80
2022-11-03T04:46:58.302Z,1.70
2022-11-03T04:49:29.727Z,1.90
2022-11-03T04:52:00.634Z,2.53
2022-11-03T04:54:31.620Z,1.55
2022-11-03T04:57:03.316Z,2.00
2022-11-03T04:59:34.816Z,1.95
2022-11-03T05:02:15.784Z,1.98
2022-11-03T05:04:47.072Z,2.33
2022-11-03T05:07:28.005Z,3.00
2022-11-03T05:09:59.618Z,2.17
2022-11-03T05:12:32.235Z,2.50
2022-11-03T05:15:03.275Z,2.15
2022-11-03T05:17:37.419Z,2.47
2022-11-03T05:20:09.644Z,2.70
2022-11-03T05:22:41.570Z,1.90
2022-11-03T05:25:35.765Z,2.05
2022-11-03T05:28:07.473Z,2.40
2022-11-03T05:30:39.122Z,2.45
2022-11-03T05:33:25.305Z,2.25
2022-11-03T05:35:57.024Z,2.10
2022-11-03T05:38:27.894Z,3.03
2022-11-03T05:40:59.165Z,2.67
2022-11-03T05:43:31.266Z,2.78
2022-11-03T05:48:44.128Z,2.42
2022-11-03T05:51:22.478Z,2.78
2022-11-03T05:53:56.724Z,2.97
2022-11-03T05:56:28.776Z,3.28
2022-11-03T05:59:00.692Z,2.65
2022-11-03T06:01:33.963Z,2.55
2022-11-03T06:04:18.425Z,2.22
2022-11-03T06:06:54.049Z,2.85
2022-11-03T06:09:28.370Z,2.97
2022-11-03T06:12:02.142Z,3.05
2022-11-03T06:14:34.941Z,3.55
2022-11-03T06:17:09.564Z,2.70
2022-11-03T06:19:45.406Z,2.55
2022-11-03T06:22:21.829Z,3.13
2022-11-03T06:24:53.199Z,3.83
2022-11-03T06:27:27.153Z,3.45
2022-11-03T06:30:03.994Z,2.47
2022-11-03T06:35:15.272Z,2.55
2022-11-03T06:37:47.375Z,2.92
2022-11-03T06:40:37.438Z,2.72
2022-11-03T06:43:30.766Z,3.28
2022-11-03T06:46:02.807Z,2.78
2022-11-03T06:48:37.027Z,3.55
2022-11-03T06:51:20.314Z,3.35
2022-11-03T06:53:53.711Z,3.05
2022-11-03T06:56:28.501Z,3.13
2022-11-03T06:59:00.709Z,2.95
2022-11-03T07:01:35.514Z,3.67
2022-11-03T07:04:16.002Z,2.38
2022-11-03T07:06:53.518Z,3.03
2022-11-03T07:09:29.655Z,2.80
2022-11-03T07:12:03.284Z,2.88
2022-11-03T07:14:37.382Z,2.70
2022-11-03T07:17:10.326Z,2.80
2022-11-03T07:19:44.802Z,2.88
2022-11-03T07:22:23.353Z,2.50
2022-11-03T07:24:57.579Z,2.10
2022-11-03T07:27:30.165Z,2.55
2022-11-03T07:30:02.711Z,2.38
2022-11-03T07:32:36.940Z,2.95
2022-11-03T07:35:26.760Z,2.20
2022-11-03T07:38:04.109Z,2.25
2022-11-03T07:40:38.069Z,2.50
2022-11-03T07:43:19.221Z,2.28
2022-11-03T07:45:54.326Z,2.42
2022-11-03T07:48:28.800Z,2.10
2022-11-03T07:51:02.535Z,2.83
2022-11-03T07:53:43.468Z,1.90
2022-11-03T07:56:21.312Z,1.98
2022-11-03T07:58:56.879Z,2.42
2022-11-03T08:01:31.385Z,2.10
2022-11-03T08:04:09.543Z,1.85
2022-11-03T08:06:41.005Z,2.42
2022-11-03T08:09:15.532Z,2.70
2022-11-03T08:11:47.645Z,1.88
2022-11-03T08:14:19.060Z,2.35
2022-11-03T08:16:50.621Z,2.38
2022-11-03T08:19:22.021Z,2.55
2022-11-03T08:21:53.290Z,3.58
2022-11-03T08:24:27.381Z,3.05
2022-11-03T08:26:59.120Z,2.63
2022-11-03T08:29:32.596Z,2.65
2022-11-03T08:32:04.575Z,2.10
2022-11-03T08:34:36.278Z,2.28
2022-11-03T08:37:08.221Z,2.63
2022-11-03T08:39:42.498Z,2.10
2022-11-03T08:42:13.709Z,2.65
2022-11-03T08:44:45.007Z,2.08
2022-11-03T08:47:16.424Z,1.35
2022-11-03T08:49:47.713Z,0.82
2022-11-03T08:52:19.286Z,0.88
2022-11-03T08:54:53.553Z,0.68
2022-11-03T08:57:25.318Z,0.90
2022-11-03T08:59:56.610Z,0.50
2022-11-03T09:02:28.045Z,0.60
2022-11-03T09:04:59.017Z,0.40
2022-11-03T09:10:28.398Z,0.60
2022-11-03T09:13:04.961Z,0.50
2022-11-03T09:15:36.995Z,0.28
2022-11-03T09:18:08.249Z,0.30
2022-11-03T09:20:39.731Z,0.43
2022-11-03T09:23:10.726Z,0.35
2022-11-03T09:25:44.380Z,0.30
2022-11-03T09:28:15.408Z,0.80
2022-11-03T09:30:46.607Z,0.55
2022-11-03T09:33:17.946Z,0.70
2022-11-03T09:35:51.043Z,1.00
2022-11-03T09:38:23.106Z,2.08
2022-11-03T09:40:57.678Z,4.05
2022-11-03T09:43:28.823Z,4.10
2022-11-03T09:46:00.037Z,0.73
2022-11-03T09:48:32.564Z,0.70
2022-11-03T09:51:03.593Z,0.70
2022-11-03T09:53:35.020Z,0.70
2022-11-03T09:56:09.715Z,1.83
2022-11-03T09:58:40.972Z,2.42
2022-11-03T10:01:14.394Z,2.63
2022-11-03T10:03:45.666Z,1.80
2022-11-03T10:06:17.319Z,1.95
2022-11-03T10:08:50.008Z,2.05
2022-11-03T10:11:23.923Z,1.30
2022-11-03T10:13:59.484Z,1.77
2022-11-03T10:16:31.663Z,1.52
2022-11-03T10:19:03.093Z,1.83
2022-11-03T10:21:38.247Z,1.40
2022-11-03T10:24:09.788Z,1.10
2022-11-03T10:26:51.642Z,1.45
2022-11-03T10:29:27.800Z,1.67
2022-11-03T10:32:01.734Z,1.17
2022-11-03T10:34:41.438Z,0.73
2022-11-03T10:37:21.274Z,0.90
2022-11-03T10:39:55.341Z,0.70
2022-11-03T10:42:35.371Z,0.60
2022-11-03T10:45:18.800Z,0.70
2022-11-03T10:48:03.711Z,0.60
2022-11-03T10:50:34.928Z,0.70
2022-11-03T10:53:07.396Z,0.50
2022-11-03T10:58:13.633Z,1.10
2022-11-03T11:00:45.733Z,0.90
2022-11-03T11:03:20.719Z,0.70
2022-11-03T11:05:52.762Z,0.60
2022-11-03T11:08:27.452Z,0.73
2022-11-03T11:10:59.009Z,1.15
2022-11-03T11:13:33.894Z,1.55
2022-11-03T11:16:07.552Z,1.10
2022-11-03T11:19:14.927Z,0.73
2022-11-03T11:22:17.147Z,0.82
2022-11-03T11:25:04.686Z,0.70
2022-11-03T11:31:06.875Z,0.80
2022-11-03T11:33:41.385Z,0.88
2022-11-03T11:36:30.614Z,1.30
2022-11-03T11:39:03.230Z,0.80
2022-11-03T11:42:04.469Z,0.77
2022-11-03T11:44:53.747Z,1.00
2022-11-03T11:47:45.278Z,1.70
2022-11-03T11:50:37.372Z,1.30
2022-11-03T11:53:24.001Z,0.77
2022-11-03T11:56:01.847Z,0.70
2022-11-03T11:58:45.304Z,0.90
2022-11-03T12:01:28.116Z,1.05
2022-11-03T12:04:00.952Z,1.00
2022-11-03T12:09:34.551Z,0.80
2022-11-03T12:12:08.798Z,0.80
2022-11-03T12:14:41.625Z,0.90
2022-11-03T12:17:37.392Z,0.90
2022-11-03T12:20:38.010Z,1.05
2022-11-03T12:23:12.827Z,1.35
2022-11-03T12:25:44.535Z,1.20
2022-11-03T12:28:33.952Z,2.00
2022-11-03T12:31:09.012Z,1.08
2022-11-03T12:33:40.525Z,1.00
2022-11-03T12:36:12.696Z,0.90
2022-11-03T12:38:46.562Z,1.05
2022-11-03T12:41:27.269Z,0.88
2022-11-03T12:43:59.196Z,0.70
2022-11-03T12:46:31.081Z,0.70
2022-11-03T12:49:02.203Z,0.68
2022-11-03T12:51:33.686Z,0.63
2022-11-03T12:54:08.549Z,0.82
2022-11-03T12:56:39.717Z,0.70
2022-11-03T12:59:11.302Z,0.95
2022-11-03T13:01:43.037Z,0.75
2022-11-03T13:04:15.861Z,0.60
2022-11-03T13:06:46.997Z,0.50
2022-11-03T13:09:21.221Z,0.70
2022-11-03T13:12:05.168Z,0.50
2022-11-03T13:14:36.483Z,0.60
2022-11-03T13:17:08.384Z,0.70
2022-11-03T13:19:39.539Z,1.15
2022-11-03T13:22:10.817Z,0.52
2022-11-03T13:24:44.979Z,0.60
2022-11-03T13:27:16.273Z,0.70
2022-11-03T13:29:48.220Z,0.95
2022-11-03T13:32:19.554Z,0.70
2022-11-03T13:34:51.123Z,0.95
2022-11-03T13:37:22.239Z,0.77
2022-11-03T13:39:56.646Z,0.70
2022-11-03T13:42:28.943Z,0.70
2022-11-03T13:45:01.074Z,0.40
2022-11-03T13:47:52.391Z,0.80
2022-11-03T13:50:24.687Z,0.50
2022-11-03T13:55:51.535Z,0.45
2022-11-03T14:01:15.110Z,1.10
2022-11-03T14:06:38.619Z,0.93
2022-11-03T14:09:10.684Z,0.80
2022-11-03T14:12:15.815Z,0.45
2022-11-03T14:14:47.344Z,0.95
2022-11-03T14:17:18.974Z,0.93
2022-11-03T14:19:52.823Z,1.00
2022-11-03T14:22:28.396Z,1.42
2022-11-03T14:25:01.380Z,1.08
2022-11-03T14:27:35.381Z,1.40
2022-11-03T14:30:06.973Z,1.48
2022-11-03T14:32:38.625Z,1.27
2022-11-03T14:35:11.056Z,2.20
2022-11-03T14:37:42.952Z,1.60
2022-11-03T14:40:35.486Z,0.80
2022-11-03T14:43:07.214Z,1.00
2022-11-03T14:45:41.595Z,1.63
2022-11-03T14:48:14.346Z,1.55
2022-11-03T14:50:46.197Z,3.05
2022-11-03T14:53:17.594Z,3.30
2022-11-03T14:55:49.601Z,1.27
2022-11-03T14:58:23.485Z,0.98
2022-11-03T15:00:54.616Z,1.17
2022-11-03T15:03:26.032Z,1.20
2022-11-03T15:05:57.148Z,1.20
2022-11-03T15:08:29.900Z,1.30
2022-11-03T15:11:01.327Z,1.20
2022-11-03T15:13:41.520Z,1.77
2022-11-03T15:16:17.345Z,1.40
2022-11-03T15:18:49.187Z,1.00
2022-11-03T15:21:20.207Z,1.20
2022-11-03T15:26:43.295Z,1.42
2022-11-03T15:29:17.174Z,1.35
2022-11-03T15:31:48.757Z,1.30
2022-11-03T15:34:20.290Z,1.75
2022-11-03T15:36:51.783Z,1.15
2022-11-03T15:39:22.901Z,1.30
2022-11-03T15:41:54.320Z,1.20
2022-11-03T15:44:28.251Z,1.13
2022-11-03T15:46:59.261Z,1.25
2022-11-03T15:49:30.771Z,1.80
2022-11-03T15:52:01.814Z,1.10
2022-11-03T15:54:32.881Z,1.45
2022-11-03T15:57:04.131Z,1.52
2022-11-03T15:59:38.914Z,1.70
2022-11-03T16:02:35.100Z,2.05
2022-11-03T16:05:02.885Z,1.60
2022-11-03T16:07:34.387Z,2.00
2022-11-03T16:10:05.535Z,2.33
2022-11-03T16:12:37.815Z,3.08
2022-11-03T16:15:12.677Z,2.95
2022-11-03T16:17:45.708Z,1.80
2022-11-03T16:20:17.023Z,2.10
2022-11-03T16:22:48.150Z,1.35
2022-11-03T16:25:21.470Z,1.30
2022-11-03T16:27:53.339Z,1.33
2022-11-03T16:30:27.014Z,1.30
2022-11-03T16:32:58.191Z,1.48
2022-11-03T16:35:29.920Z,2.13
2022-11-03T16:38:01.277Z,1.15
2022-11-03T16:40:32.135Z,1.30
2022-11-03T16:43:03.298Z,1.20
2022-11-03T16:45:38.164Z,1.65
2022-11-03T16:48:10.677Z,1.00
2022-11-03T16:50:44.674Z,1.15
2022-11-03T16:53:16.554Z,1.60
2022-11-03T16:55:49.775Z,1.67
2022-11-03T16:58:21.340Z,1.30
2022-11-03T17:00:55.479Z,0.95
2022-11-03T17:03:26.580Z,1.17
2022-11-03T17:05:58.255Z,1.80
2022-11-03T17:08:51.977Z,1.40
2022-11-03T17:11:36.448Z,1.30
2022-11-03T17:14:09.083Z,1.70
2022-11-03T17:16:46.875Z,1.42
2022-11-03T17:19:18.027Z,1.67
2022-11-03T17:21:49.169Z,2.92
2022-11-03T17:24:20.680Z,3.42
2022-11-03T17:27:00.389Z,3.08
2022-11-03T17:29:37.276Z,2.45
2022-11-03T17:32:15.017Z,2.90
2022-11-03T17:34:48.947Z,2.33
2022-11-03T17:37:20.319Z,2.33
2022-11-03T17:39:52.623Z,2.15
2022-11-03T17:42:25.423Z,1.65
2022-11-03T17:44:58.329Z,2.45
2022-11-03T17:47:32.199Z,1.70
2022-11-03T17:50:03.343Z,2.45
2022-11-03T17:52:35.367Z,1.80
2022-11-03T17:55:10.211Z,1.92
2022-11-03T17:57:41.172Z,1.65
2022-11-03T18:00:21.004Z,2.30
2022-11-03T18:02:57.236Z,1.90
2022-11-03T18:05:30.685Z,2.45
2022-11-03T18:08:03.557Z,1.83
2022-11-03T18:10:37.960Z,2.00
2022-11-03T18:13:19.768Z,2.47
2022-11-03T18:15:55.037Z,2.35
2022-11-03T18:18:33.668Z,2.42
2022-11-03T18:21:05.711Z,2.42
2022-11-03T18:23:38.625Z,2.35
2022-11-03T18:26:18.520Z,1.80
2022-11-03T18:28:50.729Z,2.50
2022-11-03T18:31:26.583Z,1.95
2022-11-03T18:34:02.434Z,1.55
2022-11-03T18:36:36.417Z,1.98
2022-11-03T18:39:08.649Z,2.63
2022-11-03T18:41:40.753Z,1.73
2022-11-03T18:44:22.800Z,1.70
2022-11-03T18:46:56.493Z,1.70
2022-11-03T18:49:33.964Z,2.47
2022-11-03T18:52:08.319Z,2.40
2022-11-03T18:54:50.497Z,2.03
2022-11-03T18:57:26.875Z,2.17
2022-11-03T18:59:58.085Z,2.30
2022-11-03T19:02:29.882Z,2.08
2022-11-03T19:05:03.805Z,2.15
2022-11-03T19:07:36.297Z,2.78
2022-11-03T19:10:10.185Z,1.77
2022-11-03T19:12:44.070Z,2.35
2022-11-03T19:15:21.239Z,2.08
2022-11-03T19:17:55.598Z,3.05
2022-11-03T19:20:29.361Z,2.15
2022-11-03T19:23:01.269Z,1.80
2022-11-03T19:25:33.252Z,2.30
2022-11-03T19:28:05.169Z,2.28
2022-11-03T19:30:36.594Z,2.90
2022-11-03T19:33:10.128Z,2.30
2022-11-03T19:35:45.229Z,2.30
2022-11-03T19:38:18.885Z,1.90
2022-11-03T19:41:02.839Z,2.72
2022-11-03T19:43:35.155Z,2.63
2022-11-03T19:46:07.799Z,1.75
2022-11-03T19:48:39.842Z,2.10
2022-11-03T19:51:15.663Z,2.92
2022-11-03T19:53:47.433Z,2.20
2022-11-03T19:56:19.435Z,2.00
2022-11-03T19:58:51.527Z,2.17
2022-11-03T20:01:23.391Z,2.53
2022-11-03T20:03:55.561Z,2.00
2022-11-03T20:06:30.206Z,2.80
2022-11-03T20:09:01.902Z,2.13
2022-11-03T20:11:33.653Z,1.83
2022-11-03T20:14:05.862Z,1.73
2022-11-03T20:16:37.067Z,1.80
2022-11-03T20:19:08.433Z,2.08
2022-11-03T20:21:44.381Z,2.80
2022-11-03T20:24:19.607Z,4.03
2022-11-03T20:26:51.246Z,2.20
2022-11-03T20:29:22.517Z,2.70
2022-11-03T20:31:53.866Z,2.40
2022-11-03T20:34:26.329Z,4.63
2022-11-03T20:37:04.564Z,2.92
2022-11-03T20:39:36.948Z,2.38
2022-11-03T20:42:08.237Z,4.45
2022-11-03T20:44:39.356Z,2.58
2022-11-03T20:47:17.907Z,2.40
2022-11-03T20:49:49.146Z,1.73
2022-11-03T20:52:22.963Z,2.17
2022-11-03T20:54:54.994Z,5.95
2022-11-03T20:57:26.512Z,2.60
2022-11-03T20:59:58.191Z,1.90
2022-11-03T21:02:30.429Z,2.08
2022-11-03T21:05:01.659Z,2.83
2022-11-03T21:07:36.110Z,3.42
2022-11-03T21:10:08.226Z,2.50
2022-11-03T21:12:39.380Z,2.22
2022-11-03T21:15:30.776Z,2.40
2022-11-03T21:18:14.084Z,4.38
2022-11-03T21:20:45.702Z,2.85
2022-11-03T21:23:24.847Z,2.78
2022-11-03T21:25:56.767Z,2.47
2022-11-03T21:28:28.262Z,2.60
2022-11-03T21:31:00.337Z,2.28
2022-11-03T21:33:31.873Z,1.60
2022-11-03T21:36:05.352Z,2.22
2022-11-03T21:38:40.029Z,1.40
2022-11-03T21:41:24.292Z,2.15
2022-11-03T21:44:07.790Z,1.90
2022-11-03T21:46:39.045Z,2.70
2022-11-03T21:49:22.277Z,2.05
2022-11-03T21:51:55.067Z,2.10
2022-11-03T21:54:30.459Z,1.88
2022-11-03T21:57:01.907Z,1.70
2022-11-03T21:59:33.830Z,1.95
2022-11-03T22:02:06.632Z,1.92
2022-11-03T22:04:40.682Z,1.60
2022-11-03T22:07:12.838Z,1.90
2022-11-03T22:09:46.787Z,1.60
2022-11-03T22:12:18.317Z,1.77
2022-11-03T22:15:02.006Z,1.92
2022-11-03T22:17:33.826Z,1.48
2022-11-03T22:20:17.126Z,1.75
2022-11-03T22:23:01.831Z,1.60
2022-11-03T22:25:48.150Z,2.08
2022-11-03T22:28:20.366Z,1.48
2022-11-03T22:31:03.835Z,1.50
2022-11-03T22:33:54.930Z,1.60
2022-11-03T22:36:26.277Z,1.55
2022-11-03T22:39:09.468Z,1.58
2022-11-03T22:42:03.409Z,1.88
2022-11-03T22:44:49.373Z,1.55
2022-11-03T22:47:20.830Z,1.45
2022-11-03T22:49:51.678Z,2.33
2022-11-03T22:52:22.607Z,1.20
2022-11-03T22:54:50.840Z,2.08
2022-11-03T22:57:24.690Z,1.52
2022-11-03T22:59:56.093Z,1.80
2022-11-03T23:02:27.793Z,1.23
2022-11-03T23:05:00.047Z,1.58
2022-11-03T23:07:34.758Z,1.35
2022-11-03T23:10:08.896Z,1.30
2022-11-03T23:12:43.910Z,1.55
2022-11-03T23:15:27.558Z,1.35
2022-11-03T23:18:10.778Z,1.67
2022-11-03T23:20:54.374Z,1.40
2022-11-03T23:23:37.779Z,2.47
2022-11-03T23:26:11.855Z,2.35
2022-11-03T23:28:47.352Z,1.40
2022-11-03T23:31:18.769Z,1.23
2022-11-03T23:33:50.117Z,1.27
2022-11-03T23:36:21.729Z,1.05
2022-11-03T23:38:52.707Z,1.63
2022-11-03T23:41:24.860Z,1.85
2022-11-03T23:44:00.529Z,1.30
2022-11-03T23:46:44.532Z,1.95
2022-11-03T23:49:16.056Z,1.30
2022-11-03T23:51:47.452Z,1.00
2022-11-03T23:54:19.297Z,1.65
2022-11-03T23:57:03.291Z,1.02
2022-11-03T23:59:38.015Z,1.13
